Westover ARB,Metropolitan Airport Springfield,Chicopee US
ICAO: KCEF
IATA: CEF
Category: Medium
Scheduled Services: No

Elevation: 241 ft
TransAlt. 18000 ft.

Airport Communications:
BRADLEY APP/DEP:125.35
ATIS:114
GND:118.35
PMSV METRO:27.475
COMD POST 439 AW:25.21
PTD:37.22
TWR:134.85
UNICOM:123

KCEF Zoom In..

Runways:

(A) RW 05 length 11597 ft width 301 ft
ILS 109.90 / hdg 48

(B) RW 15 length 7082 ft width 150 ft
---- / hdg 149

(C) RW 23 length 11597 ft width 301 ft
ILS 109.90 / hdg 228

(D) RW 33 length 7082 ft width 150 ft
---- / hdg 329

Location; KCEF
Day. 30 / Time. 19.56 Zulu
* Altimeter: 29.81
* Temperature: 26° c. 78.8°f.
* Wind from: 280° Speed 11 kn with Gusts up to 16 kn.
Dewpoint: 09° c.
Visibility: 10 Statute Miles.
Clouds: Few 6000 ft.
Clouds: Few 25000 ft.

KCEF 301956Z 28011G16KT 10SM FEW060 FEW250 26/09 A2981 RMK AO2A SLP099 T02590088


Wind From 280°
Speed 11 kn.

 
 
jpsmedia worldairports.se 2020   terms of use